samedi 29 mars 2014

ALERTE SPOTTING 29/03/14

744 EC-KQC Pullmantur Air
   dpt PLM6021  12h25

320 EC-IZR Iberia (couleur Oneworld)
   IB3410/IB3411  19h30/20h20

Manque les prévisions/immats UX / DY / BE / certains IB / AZ / TP / BA / AH
*** Heures en Local Time **
Prévisions matinales soumises à modifications de dernières minute. Voir le log du mois pour la version 'définitive' de la journée: http://www.airkalo.com/ORLYAVIATION/Logdumois.html

le TAF de la journée:




METAR: LFPO 290400Z 04002KT CAVOK 07/02 Q1014 NOSIG=
TAF LONG: LFPO 282300Z 2900/3006 12005KT CAVOK